Time;durP1;ratioP1;P1;durP2;ratioP2;P2;SDS_P1;SDS_P2;PMS_P1;PMS_P2;Temp;Humidity;BMP_temperature;BMP_pressure;BME280_temperature;BME280_humidity;BME280_pressure;Samples;Min_cycle;Max_cycle;Signal;HPM_P1;HPM_P2
2022/04/07 00:00:13;;;;;;;0.10;0.10;;;;;;;11.97;67.97;99144.38;5074403;28;20402;-79
2022/04/07 00:02:39;;;;;;;0.10;0.10;;;;;;;11.77;68.30;99140.09;5079351;28;20541;-78
2022/04/07 00:05:06;;;;;;;1.17;1.08;;;;;;;11.86;68.17;99133.44;5076062;28;20079;-78
2022/04/07 00:07:32;;;;;;;0.20;0.20;;;;;;;11.90;67.79;99129.69;5076124;28;20082;-79
2022/04/07 00:09:58;;;;;;;0.10;0.10;;;;;;;11.76;68.07;99133.94;5076073;28;20038;-79
2022/04/07 00:12:24;;;;;;;0.00;0.00;;;;;;;11.79;67.79;99135.56;5074499;28;20389;-79
2022/04/07 00:14:50;;;;;;;0.10;0.10;;;;;;;11.76;67.86;99123.34;5081967;28;20113;-79
2022/04/07 00:17:16;;;;;;;2.05;1.13;;;;;;;11.69;68.32;99126.34;5085411;28;20033;-79
2022/04/07 00:19:43;;;;;;;0.10;0.10;;;;;;;11.83;67.51;99099.97;5076076;28;20048;-79
2022/04/07 00:22:09;;;;;;;0.10;0.10;;;;;;;11.88;67.69;99105.88;5075996;28;20029;-78
2022/04/07 00:24:35;;;;;;;0.10;0.10;;;;;;;11.90;67.70;99111.97;5083557;28;20036;-79
2022/04/07 00:27:01;;;;;;;0.10;0.10;;;;;;;11.93;67.09;99113.59;5076468;28;20067;-79
2022/04/07 00:29:28;;;;;;;0.00;0.00;;;;;;;11.80;67.43;99101.00;5077275;28;20089;-78
2022/04/07 00:31:57;;;;;;;0.20;0.20;;;;;;;11.77;67.46;99092.34;5086594;28;20060;-79
2022/04/07 00:34:24;;;;;;;0.00;0.00;;;;;;;11.91;67.31;99088.94;5088222;28;20028;-79
2022/04/07 00:36:50;;;;;;;0.10;0.10;;;;;;;11.83;67.08;99084.03;5083853;28;20360;-79
2022/04/07 00:39:16;;;;;;;0.10;0.10;;;;;;;11.77;67.76;99084.38;5084189;28;20039;-79
2022/04/07 00:41:43;;;;;;;4.75;2.28;;;;;;;11.89;66.87;99083.72;5077121;28;20036;-79
2022/04/07 00:44:09;;;;;;;0.10;0.10;;;;;;;11.95;66.62;99082.50;5082100;28;20028;-79
2022/04/07 00:46:37;;;;;;;0.55;0.55;;;;;;;11.86;66.57;99069.75;5091367;28;20067;-78
2022/04/07 00:49:04;;;;;;;0.10;0.10;;;;;;;11.80;66.73;99073.59;5083885;28;20032;-79
2022/04/07 00:51:30;;;;;;;0.10;0.10;;;;;;;11.80;67.09;99055.00;5083318;28;20521;-78
2022/04/07 00:53:57;;;;;;;0.43;0.43;;;;;;;11.94;66.55;99073.72;5086570;28;20028;-79
2022/04/07 00:56:25;;;;;;;0.10;0.10;;;;;;;11.92;66.36;99049.03;5078393;28;20021;-77
2022/04/07 00:58:52;;;;;;;0.03;0.03;;;;;;;11.92;66.60;99050.84;5084262;28;20044;-78
2022/04/07 01:01:20;;;;;;;0.00;0.00;;;;;;;12.06;66.55;99039.50;5083791;28;20037;-79
2022/04/07 01:03:47;;;;;;;0.03;0.03;;;;;;;11.97;66.78;99052.34;5080131;28;20024;-78
2022/04/07 01:06:13;;;;;;;0.20;0.20;;;;;;;11.84;67.28;99053.94;5094773;28;20107;-79
2022/04/07 01:08:39;;;;;;;0.10;0.10;;;;;;;11.79;67.52;99042.72;5076876;28;20521;-79
2022/04/07 01:11:05;;;;;;;0.10;0.10;;;;;;;11.89;66.82;99027.16;5086703;28;20024;-79
2022/04/07 01:13:50;;;;;;;0.10;0.10;;;;;;;11.98;66.94;99024.84;5070445;28;20056;-78
2022/04/07 01:16:18;;;;;;;0.03;0.03;;;;;;;11.81;68.71;99019.56;5073447;28;20082;-79
2022/04/07 01:18:46;;;;;;;0.10;0.10;;;;;;;11.76;68.81;99026.94;5078941;28;20031;-78
2022/04/07 01:21:14;;;;;;;0.10;0.10;;;;;;;11.68;68.93;99013.25;5083722;28;20035;-77
2022/04/07 01:23:48;;;;;;;0.43;0.43;;;;;;;11.61;69.29;99002.09;5079258;28;20029;-79
2022/04/07 01:26:15;;;;;;;0.10;0.10;;;;;;;11.65;69.36;98996.53;5079966;28;20445;-79
2022/04/07 01:28:47;;;;;;;0.10;0.10;;;;;;;11.53;70.04;98968.03;5074773;28;20519;-78
2022/04/07 01:31:14;;;;;;;;;;;;;;;11.83;68.66;98975.25;5078064;28;20044;-78
2022/04/07 01:33:41;;;;;;;0.10;0.10;;;;;;;11.56;69.67;98967.00;5078587;28;20020;-79
2022/04/07 01:36:07;;;;;;;0.57;0.57;;;;;;;11.53;69.93;98972.50;5083407;28;20454;-79
2022/04/07 01:38:33;;;;;;;0.22;0.22;;;;;;;11.65;69.59;98961.19;5082442;28;20488;-79
2022/04/07 01:41:00;;;;;;;0.08;0.08;;;;;;;11.64;69.23;98955.03;5086534;28;20036;-79
2022/04/07 01:43:27;;;;;;;0.32;0.32;;;;;;;11.69;69.00;98945.97;5077529;28;20028;-79
2022/04/07 01:45:53;;;;;;;0.10;0.10;;;;;;;11.69;69.21;98943.31;5075167;28;20090;-79
2022/04/07 01:48:19;;;;;;;0.10;0.10;;;;;;;11.58;69.22;98933.31;5075667;28;20126;-79
2022/04/07 01:50:50;;;;;;;8.10;3.40;;;;;;;11.68;69.02;98937.16;5079428;28;20052;-78
2022/04/07 01:53:17;;;;;;;0.10;0.10;;;;;;;11.70;69.01;98915.84;5077953;28;20036;-79
2022/04/07 01:55:44;;;;;;;0.10;0.10;;;;;;;11.74;68.90;98912.06;5075883;28;20117;-79
2022/04/07 01:58:10;;;;;;;0.22;0.22;;;;;;;11.72;69.46;98914.81;5076323;28;20028;-78
2022/04/07 02:00:39;;;;;;;0.20;0.20;;;;;;;11.63;69.69;98933.91;5080234;28;20028;-79
2022/04/07 02:03:05;;;;;;;0.00;0.00;;;;;;;11.48;69.47;98906.44;5089109;28;20035;-78
2022/04/07 02:05:32;;;;;;;0.10;0.10;;;;;;;11.52;69.72;98897.34;5080286;28;20024;-79
2022/04/07 02:07:58;;;;;;;0.10;0.10;;;;;;;11.46;69.97;98908.31;5080164;28;20028;-78
2022/04/07 02:10:26;;;;;;;0.00;0.00;;;;;;;11.52;69.43;98896.50;5081109;28;20060;-78
2022/04/07 02:12:52;;;;;;;0.20;0.20;;;;;;;11.50;69.37;98896.56;5077982;28;20020;-79
2022/04/07 02:15:18;;;;;;;0.28;0.28;;;;;;;11.53;68.65;98888.47;5078785;28;20120;-79
2022/04/07 02:17:44;;;;;;;0.00;0.00;;;;;;;11.60;68.00;98910.19;5084574;28;20131;-78
2022/04/07 02:20:11;;;;;;;0.00;0.00;;;;;;;11.68;68.06;98949.59;5094021;28;20028;-78
2022/04/07 02:22:37;;;;;;;0.10;0.10;;;;;;;11.64;67.61;98880.75;5078209;28;20055;-78
2022/04/07 02:25:05;;;;;;;0.30;0.30;;;;;;;11.79;67.34;98873.75;5078666;28;20112;-78
2022/04/07 02:27:40;;;;;;;0.25;0.25;;;;;;;11.85;66.58;98892.91;5078991;28;20044;-78
2022/04/07 02:30:08;;;;;;;0.57;0.38;;;;;;;11.63;66.36;98863.13;5071174;28;20031;-78
2022/04/07 02:32:35;;;;;;;0.10;0.10;;;;;;;11.92;66.07;98867.75;5079748;28;20024;-78
2022/04/07 02:35:01;;;;;;;1.17;0.73;;;;;;;11.91;66.69;98860.72;5086894;28;20028;-78
2022/04/07 02:37:27;;;;;;;0.10;0.10;;;;;;;11.88;66.57;98861.75;5075047;28;20035;-79
2022/04/07 02:39:54;;;;;;;0.30;0.30;;;;;;;11.68;66.90;98868.19;5077617;28;20041;-78
2022/04/07 02:42:20;;;;;;;0.13;0.13;;;;;;;11.87;66.40;98844.09;5078693;28;20101;-78
2022/04/07 02:44:47;;;;;;;0.10;0.10;;;;;;;11.82;66.62;98846.19;5082793;28;20033;-78
2022/04/07 02:47:13;;;;;;;0.80;0.80;;;;;;;11.62;66.51;98834.88;5080139;28;20059;-78
2022/04/07 02:49:39;;;;;;;0.10;0.10;;;;;;;11.83;65.72;98829.31;5081754;28;20464;-78
2022/04/07 02:52:08;;;;;;;1.85;1.75;;;;;;;11.95;66.22;98828.59;5080142;28;20058;-78
2022/04/07 02:54:35;;;;;;;0.08;0.08;;;;;;;11.98;65.91;98817.84;5082325;28;20028;-79
2022/04/07 02:57:01;;;;;;;0.10;0.10;;;;;;;11.83;66.35;98808.09;5073775;28;20534;-77
2022/04/07 02:59:27;;;;;;;0.10;0.10;;;;;;;11.92;66.66;98801.41;5073704;28;20043;-78
2022/04/07 03:01:56;;;;;;;0.98;0.98;;;;;;;11.91;66.27;98800.56;5075254;28;20035;-77
2022/04/07 03:04:24;;;;;;;0.00;0.00;;;;;;;11.88;66.83;98802.53;5075413;28;20461;-78
2022/04/07 03:06:51;;;;;;;0.35;0.35;;;;;;;11.76;66.58;98801.41;5073539;28;20035;-78
2022/04/07 03:09:18;;;;;;;1.77;1.67;;;;;;;11.81;66.71;98786.09;5071675;28;20089;-78
2022/04/07 03:11:46;;;;;;;0.05;0.05;;;;;;;11.91;66.55;98779.31;5072928;28;20060;-78
2022/04/07 03:14:13;;;;;;;2.42;1.30;;;;;;;11.75;66.60;98776.69;5079267;28;20119;-78
2022/04/07 03:16:39;;;;;;;1.48;1.25;;;;;;;11.70;66.70;98783.19;5076054;28;20032;-78
2022/04/07 03:19:06;;;;;;;0.10;0.10;;;;;;;11.81;66.38;98759.56;5074811;28;20525;-78
2022/04/07 03:21:32;;;;;;;0.10;0.10;;;;;;;11.81;67.19;98741.84;5075139;28;20060;-78
2022/04/07 03:23:58;;;;;;;5.13;1.88;;;;;;;11.77;67.05;98753.56;5075158;28;20518;-78
2022/04/07 03:26:24;;;;;;;0.73;0.73;;;;;;;11.69;67.43;98739.91;5076367;28;20036;-79
2022/04/07 03:28:50;;;;;;;0.10;0.10;;;;;;;11.74;67.44;98721.06;5076678;28;20024;-79
2022/04/07 03:31:16;;;;;;;0.05;0.05;;;;;;;11.77;67.41;98731.50;5079372;28;20036;-79
2022/04/07 03:33:42;;;;;;;0.10;0.10;;;;;;;11.81;67.24;98719.75;5083557;28;20075;-79
2022/04/07 03:36:08;;;;;;;0.10;0.10;;;;;;;11.73;67.72;98719.38;5075345;28;20399;-78
2022/04/07 03:38:35;;;;;;;0.10;0.10;;;;;;;11.56;68.25;98710.59;5114073;22;20446;-77
2022/04/07 03:41:01;;;;;;;11.20;2.20;;;;;;;11.65;67.88;98702.09;5107347;28;20262;-78
2022/04/07 03:43:27;;;;;;;0.00;0.00;;;;;;;11.56;68.56;98678.75;5123286;27;20093;-78
2022/04/07 03:45:54;;;;;;;0.10;0.10;;;;;;;11.68;68.72;98684.31;5115553;27;20050;-76
2022/04/07 03:48:20;;;;;;;0.10;0.10;;;;;;;11.60;68.73;98698.00;5107542;27;20546;-77
2022/04/07 03:50:47;;;;;;;0.00;0.00;;;;;;;11.54;68.96;98667.41;5101069;28;20039;-76
2022/04/07 03:53:13;;;;;;;0.00;0.00;;;;;;;11.51;69.06;98651.66;5101747;28;20032;-77
2022/04/07 03:55:39;;;;;;;0.10;0.10;;;;;;;11.55;68.99;98634.63;5099787;28;20036;-77
2022/04/07 03:58:05;;;;;;;0.00;0.00;;;;;;;11.52;69.73;98626.84;5118150;28;20019;-77
2022/04/07 04:00:32;;;;;;;0.03;0.03;;;;;;;11.44;69.44;98622.00;5123020;27;20030;-77
2022/04/07 04:02:59;;;;;;;0.30;0.30;;;;;;;11.32;70.06;98623.56;5112635;27;20024;-77
2022/04/07 04:05:25;;;;;;;0.10;0.10;;;;;;;11.46;69.72;98598.03;5110308;28;20115;-76
2022/04/07 04:07:51;;;;;;;0.10;0.10;;;;;;;11.37;69.77;98590.66;5121137;27;20493;-78
2022/04/07 04:10:17;;;;;;;0.30;0.30;;;;;;;11.44;69.24;98589.31;5108714;27;20106;-78
2022/04/07 04:12:43;;;;;;;0.10;0.10;;;;;;;11.29;69.40;98569.88;5111597;27;20049;-77
2022/04/07 04:15:09;;;;;;;0.10;0.10;;;;;;;11.38;68.87;98566.69;5115344;27;20500;-77
2022/04/07 04:17:36;;;;;;;0.10;0.10;;;;;;;11.40;68.61;98550.69;5115026;27;20063;-77
2022/04/07 04:20:02;;;;;;;0.40;0.40;;;;;;;11.46;68.55;98539.72;5113194;27;20046;-77
2022/04/07 04:22:28;;;;;;;0.10;0.10;;;;;;;11.38;68.38;98536.69;5122256;27;20023;-78
2022/04/07 04:24:54;;;;;;;0.10;0.10;;;;;;;11.48;68.48;98557.22;5123365;27;20115;-76
2022/04/07 04:27:20;;;;;;;0.10;0.10;;;;;;;11.40;68.39;98532.13;5109852;28;20035;-77
2022/04/07 04:29:47;;;;;;;0.10;0.10;;;;;;;11.45;68.34;98520.31;5119002;27;20046;-77
2022/04/07 04:32:13;;;;;;;0.10;0.10;;;;;;;11.34;68.26;98514.81;5105391;27;20028;-76
2022/04/07 04:34:39;;;;;;;0.20;0.20;;;;;;;11.39;68.21;98507.44;5112834;28;20460;-78
2022/04/07 04:37:05;;;;;;;0.00;0.00;;;;;;;11.23;68.88;98491.59;5116231;27;20031;-77
2022/04/07 04:39:32;;;;;;;0.22;0.22;;;;;;;11.36;68.45;98490.84;5113536;27;20041;-77
2022/04/07 04:41:58;;;;;;;0.10;0.10;;;;;;;11.37;68.53;98505.81;5122150;27;20041;-78
2022/04/07 04:44:24;;;;;;;0.10;0.10;;;;;;;11.25;69.09;98496.78;5123482;27;20023;-77
2022/04/07 04:46:50;;;;;;;0.10;0.10;;;;;;;11.31;68.93;98473.44;5111000;27;20112;-76
2022/04/07 04:49:16;;;;;;;1.88;1.75;;;;;;;11.16;69.86;98471.69;5112753;27;20099;-77
2022/04/07 04:51:42;;;;;;;0.00;0.00;;;;;;;11.11;70.13;98468.47;5119916;27;20027;-76
2022/04/07 04:54:08;;;;;;;0.30;0.30;;;;;;;11.20;69.63;98446.69;5111371;28;20499;-78
2022/04/07 04:56:34;;;;;;;0.05;0.05;;;;;;;11.09;69.96;98460.63;5107192;28;20046;-77
2022/04/07 04:59:00;;;;;;;1.58;1.48;;;;;;;11.00;70.80;98456.72;5127564;27;20075;-77
2022/04/07 05:01:26;;;;;;;0.10;0.10;;;;;;;11.03;71.08;98444.22;5118350;28;20125;-76
2022/04/07 05:03:53;;;;;;;1.17;0.85;;;;;;;11.02;70.90;98453.97;5117786;28;20046;-77
2022/04/07 05:06:19;;;;;;;0.10;0.10;;;;;;;11.00;71.16;98414.34;5121152;28;20023;-77
2022/04/07 05:08:45;;;;;;;0.20;0.20;;;;;;;10.77;71.86;98444.00;5122454;28;20059;-76
2022/04/07 05:11:11;;;;;;;0.10;0.10;;;;;;;10.89;72.00;98418.56;5113369;28;20027;-77
2022/04/07 05:13:37;;;;;;;0.10;0.10;;;;;;;10.90;72.13;98413.16;5110265;28;20032;-76
2022/04/07 05:16:04;;;;;;;0.10;0.10;;;;;;;11.02;71.83;98416.06;5117568;28;20060;-77
2022/04/07 05:18:30;;;;;;;0.10;0.10;;;;;;;10.95;71.90;98429.66;5109822;28;20024;-76
2022/04/07 05:20:56;;;;;;;0.35;0.35;;;;;;;10.92;71.83;98461.63;5106991;28;20524;-75
2022/04/07 05:23:22;;;;;;;0.10;0.10;;;;;;;10.92;71.71;98423.69;5110361;28;20529;-76
2022/04/07 05:25:48;;;;;;;0.10;0.10;;;;;;;10.86;71.90;98434.66;5104750;28;20024;-76
2022/04/07 05:28:14;;;;;;;0.10;0.10;;;;;;;10.86;72.72;98424.06;5104675;28;20035;-77
2022/04/07 05:30:40;;;;;;;0.10;0.10;;;;;;;11.02;72.18;98424.00;5104006;28;20433;-74
2022/04/07 05:33:06;;;;;;;0.10;0.10;;;;;;;10.90;72.34;98418.47;5106813;28;20458;-76
2022/04/07 05:35:32;;;;;;;0.20;0.20;;;;;;;11.00;72.03;98445.25;5106056;28;20106;-76
2022/04/07 05:38:02;;;;;;;0.10;0.10;;;;;;;10.95;72.41;98421.72;5105162;28;20634;-77
2022/04/07 05:40:29;;;;;;;0.10;0.10;;;;;;;10.99;72.19;98433.81;5099605;28;20063;-76
2022/04/07 05:42:56;;;;;;;0.30;0.30;;;;;;;11.01;71.98;98489.38;5109326;28;20505;-76
2022/04/07 05:45:23;;;;;;;0.10;0.10;;;;;;;10.86;70.09;98545.94;5111223;27;20499;-77
2022/04/07 05:47:52;;;;;;;0.10;0.10;;;;;;;10.56;66.51;98537.00;5122322;27;20403;-78
2022/04/07 05:50:18;;;;;;;0.10;0.10;;;;;;;9.59;64.73;98540.47;5118677;27;20028;-77
2022/04/07 05:52:44;;;;;;;0.05;0.05;;;;;;;8.58;63.93;98549.97;5111343;28;20058;-76
2022/04/07 05:55:11;;;;;;;0.10;0.10;;;;;;;7.95;64.79;98540.59;5106812;27;20462;-75
2022/04/07 05:57:37;;;;;;;0.25;0.25;;;;;;;7.41;65.97;98543.88;5108037;28;20062;-76
2022/04/07 06:00:12;;;;;;;0.10;0.10;;;;;;;7.20;67.87;98535.16;5099656;28;20035;-75
2022/04/07 06:02:39;;;;;;;0.10;0.10;;;;;;;7.09;69.80;98535.59;5102803;28;20035;-75
2022/04/07 06:05:07;;;;;;;0.10;0.10;;;;;;;7.18;69.92;98528.19;5098937;28;20016;-75
2022/04/07 06:07:34;;;;;;;0.10;0.10;;;;;;;7.26;70.73;98531.38;5102330;28;20046;-77
2022/04/07 06:10:00;;;;;;;0.10;0.10;;;;;;;7.39;70.82;98518.50;5099897;27;20063;-75
2022/04/07 06:12:26;;;;;;;0.10;0.10;;;;;;;7.38;72.36;98522.94;5080280;28;20459;-77
2022/04/07 06:14:52;;;;;;;0.10;0.10;;;;;;;7.49;72.00;98540.91;5108052;28;20028;-76
2022/04/07 06:17:19;;;;;;;0.10;0.10;;;;;;;7.55;72.70;98516.03;5103786;28;20032;-76
2022/04/07 06:19:45;;;;;;;0.10;0.10;;;;;;;7.74;72.12;98510.81;5107324;28;20111;-76
2022/04/07 06:22:12;;;;;;;0.10;0.10;;;;;;;7.76;72.46;98493.13;5095496;28;20589;-76
2022/04/07 06:24:38;;;;;;;0.10;0.10;;;;;;;7.85;72.88;98489.22;5112033;27;20031;-75
2022/04/07 06:27:05;;;;;;;0.10;0.10;;;;;;;7.97;72.32;98487.78;5100283;28;20127;-76
2022/04/07 06:29:31;;;;;;;1.17;1.17;;;;;;;8.02;72.59;98459.41;5105906;27;20092;-76
2022/04/07 06:31:57;;;;;;;0.10;0.10;;;;;;;8.08;72.02;98457.31;5084902;28;20038;-75
2022/04/07 06:34:23;;;;;;;0.10;0.10;;;;;;;8.09;72.15;98466.97;5109130;27;20032;-76
2022/04/07 06:36:49;;;;;;;0.08;0.08;;;;;;;8.17;71.59;98471.00;5105271;27;20028;-76
2022/04/07 06:39:16;;;;;;;0.10;0.10;;;;;;;8.19;71.87;98471.81;5100344;27;20583;-76
2022/04/07 06:41:42;;;;;;;0.10;0.10;;;;;;;8.23;72.16;98465.44;5102758;28;20547;-75
2022/04/07 06:44:08;;;;;;;0.25;0.25;;;;;;;8.35;71.95;98467.47;5104808;28;20115;-75
2022/04/07 06:46:34;;;;;;;0.10;0.10;;;;;;;8.36;72.01;98458.66;5113112;28;20039;-75
2022/04/07 06:49:00;;;;;;;0.10;0.10;;;;;;;8.32;71.78;98464.97;5110161;28;20028;-76
2022/04/07 06:51:27;;;;;;;0.10;0.10;;;;;;;8.26;72.25;98458.22;5116592;27;20076;-76
2022/04/07 06:53:54;;;;;;;0.10;0.10;;;;;;;8.27;71.68;98464.34;5110404;28;20703;-76
2022/04/07 06:56:20;;;;;;;0.00;0.00;;;;;;;8.40;71.44;98451.44;5108814;28;20078;-76
2022/04/07 06:58:46;;;;;;;0.10;0.10;;;;;;;8.32;71.58;98445.66;5100376;27;20039;-76
2022/04/07 07:01:12;;;;;;;0.10;0.10;;;;;;;8.25;72.04;98430.13;5100707;27;20141;-74
2022/04/07 07:03:38;;;;;;;0.10;0.10;;;;;;;8.30;71.95;98414.09;5097837;28;20039;-74
2022/04/07 07:06:04;;;;;;;0.10;0.10;;;;;;;8.31;71.29;98415.81;5099803;27;20036;-75
2022/04/07 07:08:30;;;;;;;0.10;0.10;;;;;;;8.35;71.22;98406.78;5101978;27;20331;-75
2022/04/07 07:10:56;;;;;;;0.08;0.08;;;;;;;8.41;70.90;98403.84;5094352;27;20036;-75
2022/04/07 07:13:23;;;;;;;0.10;0.10;;;;;;;8.45;71.75;98398.41;5096236;27;20055;-75
2022/04/07 07:15:49;;;;;;;0.10;0.10;;;;;;;8.45;71.49;98393.13;5099634;28;20028;-75
2022/04/07 07:18:16;;;;;;;0.10;0.10;;;;;;;8.41;71.70;98388.03;5099046;27;20484;-75
2022/04/07 07:20:42;;;;;;;0.10;0.10;;;;;;;8.53;71.16;98383.06;5107659;27;20031;-76
2022/04/07 07:23:09;;;;;;;0.10;0.10;;;;;;;8.64;71.32;98378.09;5103567;27;20059;-76
2022/04/07 07:25:35;;;;;;;0.10;0.10;;;;;;;8.68;71.11;98368.25;5101862;27;20023;-76
2022/04/07 07:28:03;;;;;;;0.03;0.03;;;;;;;8.75;71.30;98359.06;5100151;27;20039;-76
2022/04/07 07:30:29;;;;;;;0.10;0.10;;;;;;;8.82;70.76;98333.19;5111199;28;20032;-76
2022/04/07 07:32:55;;;;;;;0.20;0.20;;;;;;;8.85;71.31;98311.91;5112390;28;20051;-76
2022/04/07 07:35:23;;;;;;;0.10;0.10;;;;;;;8.87;71.28;98304.75;5112980;28;20077;-76
2022/04/07 07:40:27;;;;;;;0.10;0.10;;;;;;;8.95;70.80;98307.84;5108907;27;20387;-75
2022/04/07 07:42:56;;;;;;;0.10;0.10;;;;;;;8.93;71.19;98330.81;5109153;28;20370;-75
2022/04/07 07:45:23;;;;;;;0.10;0.10;;;;;;;8.99;71.34;98297.97;5099673;28;20028;-75
2022/04/07 07:47:51;;;;;;;0.10;0.10;;;;;;;9.09;70.62;98291.22;5104388;28;20043;-75
2022/04/07 07:50:17;;;;;;;0.10;0.10;;;;;;;9.10;71.09;98292.06;5100398;28;20063;-76
2022/04/07 07:52:43;;;;;;;0.20;0.20;;;;;;;9.23;70.68;98301.91;5104164;28;20040;-74
2022/04/07 07:55:09;;;;;;;0.10;0.10;;;;;;;9.18;70.83;98297.78;5108235;28;20048;-75
2022/04/07 07:57:35;;;;;;;0.10;0.10;;;;;;;9.27;70.75;98307.88;5109009;28;20047;-75
2022/04/07 08:00:04;;;;;;;0.10;0.10;;;;;;;9.24;70.48;98318.59;5108080;28;20028;-76
2022/04/07 08:02:31;;;;;;;0.10;0.10;;;;;;;9.43;70.50;98299.06;5105487;28;20111;-75
2022/04/07 08:04:57;;;;;;;0.10;0.10;;;;;;;9.49;70.38;98306.66;5101837;28;20130;-76
2022/04/07 08:07:24;;;;;;;0.10;0.10;;;;;;;9.58;70.05;98311.41;5102322;28;20043;-75
2022/04/07 08:09:50;;;;;;;0.10;0.10;;;;;;;9.54;70.10;98297.53;5104016;28;20112;-75
2022/04/07 08:12:16;;;;;;;0.00;0.00;;;;;;;9.63;70.35;98296.16;5101795;28;20520;-76
2022/04/07 08:14:42;;;;;;;0.13;0.13;;;;;;;9.68;70.14;98319.69;5103391;28;20036;-75
2022/04/07 08:17:09;;;;;;;0.10;0.10;;;;;;;9.67;70.03;98321.47;5100959;28;20031;-75
2022/04/07 08:19:35;;;;;;;0.10;0.10;;;;;;;9.95;69.29;98313.75;5098728;28;20432;-76
2022/04/07 08:22:03;;;;;;;0.15;0.15;;;;;;;9.99;68.76;98300.28;5098988;28;20028;-74
2022/04/07 08:24:29;;;;;;;0.10;0.10;;;;;;;10.17;68.62;98297.47;5107113;28;20032;-74
2022/04/07 08:26:55;;;;;;;0.10;0.10;;;;;;;10.14;67.69;98310.88;5108019;28;20135;-75
2022/04/07 08:29:21;;;;;;;0.00;0.00;;;;;;;10.46;67.49;98292.25;5108083;28;20505;-75
2022/04/07 08:31:47;;;;;;;0.10;0.10;;;;;;;10.56;67.08;98319.03;5106910;28;20552;-74
2022/04/07 08:34:13;;;;;;;0.10;0.10;;;;;;;10.74;66.87;98301.16;5107915;28;20497;-75
2022/04/07 08:36:41;;;;;;;0.10;0.10;;;;;;;10.97;66.01;98303.22;5108359;28;20028;-75
2022/04/07 08:39:07;;;;;;;0.08;0.08;;;;;;;11.03;65.72;98291.41;5107317;28;20027;-74
2022/04/07 08:41:34;;;;;;;0.10;0.10;;;;;;;11.03;64.69;98296.72;5107352;28;20058;-75
2022/04/07 08:44:00;;;;;;;0.10;0.10;;;;;;;11.15;63.72;98295.06;5107984;28;20027;-74
2022/04/07 08:46:28;;;;;;;0.10;0.10;;;;;;;11.06;63.82;98316.88;5109021;28;20483;-74
2022/04/07 08:48:56;;;;;;;0.10;0.10;;;;;;;11.16;63.39;98323.28;5109410;28;20032;-75
2022/04/07 08:51:27;;;;;;;0.10;0.10;;;;;;;11.28;63.56;98308.41;5095468;28;20028;-74
2022/04/07 08:53:54;;;;;;;0.10;0.10;;;;;;;11.33;62.90;98308.97;5094958;28;20024;-74
2022/04/07 08:56:23;;;;;;;0.10;0.10;;;;;;;11.51;63.10;98306.09;5093417;28;20111;-74
2022/04/07 08:58:50;;;;;;;0.10;0.10;;;;;;;11.52;62.24;98303.31;5090453;28;20112;-74
2022/04/07 09:01:16;;;;;;;0.05;0.05;;;;;;;11.32;60.77;98361.13;5089925;28;20085;-75
2022/04/07 09:03:43;;;;;;;0.10;0.10;;;;;;;11.44;59.59;98333.00;5090726;28;20033;-75
2022/04/07 09:06:10;;;;;;;0.10;0.10;;;;;;;11.52;59.27;98329.84;5090828;28;20482;-75
2022/04/07 09:08:39;;;;;;;0.10;0.10;;;;;;;11.40;58.48;98341.22;5090515;28;20032;-75
2022/04/07 09:11:08;;;;;;;0.08;0.08;;;;;;;11.73;59.06;98326.78;5092433;28;20029;-75
2022/04/07 09:16:15;;;;;;;0.10;0.10;;;;;;;11.68;58.45;98334.19;5104099;27;20125;-75
2022/04/07 09:18:42;;;;;;;0.00;0.00;;;;;;;11.63;56.20;98361.81;5109410;28;20032;-75
2022/04/07 09:21:24;;;;;;;0.10;0.10;;;;;;;11.78;56.36;98359.16;5107604;28;20054;-75
2022/04/07 09:23:54;;;;;;;0.10;0.10;;;;;;;11.95;56.07;98382.78;5101162;28;20362;-78
2022/04/07 09:26:20;;;;;;;0.10;0.10;;;;;;;12.12;56.68;98343.69;5108560;28;20408;-77
2022/04/07 09:28:46;;;;;;;0.10;0.10;;;;;;;11.97;55.17;98358.81;5108392;28;20031;-77
2022/04/07 09:31:15;;;;;;;0.10;0.10;;;;;;;12.08;55.74;98339.53;5106730;28;20032;-77
2022/04/07 09:33:42;;;;;;;0.10;0.10;;;;;;;12.11;54.50;98356.13;5108219;28;20069;-77
2022/04/07 09:36:10;;;;;;;0.10;0.10;;;;;;;12.17;54.01;98356.66;5107972;28;20439;-77
2022/04/07 09:38:38;;;;;;;0.35;0.35;;;;;;;12.21;54.41;98372.28;5108498;28;20019;-77
2022/04/07 09:41:06;;;;;;;0.10;0.10;;;;;;;11.98;53.04;98357.88;5107331;28;20462;-75
2022/04/07 09:43:49;;;;;;;0.10;0.10;;;;;;;12.19;53.03;98355.59;5105396;28;20477;-77
2022/04/07 09:46:18;;;;;;;0.10;0.10;;;;;;;11.98;53.25;98364.03;5105226;28;20047;-76
2022/04/07 09:51:46;;;;;;;0.10;0.10;;;;;;;11.84;53.51;98387.06;5107425;27;20120;-77
2022/04/07 09:54:14;;;;;;;0.10;0.10;;;;;;;11.96;54.23;98365.94;5087641;28;20032;-77
2022/04/07 09:56:41;;;;;;;0.10;0.10;;;;;;;11.94;54.16;98386.38;5091153;28;20052;-77
2022/04/07 09:59:07;;;;;;;0.10;0.10;;;;;;;11.82;53.88;98377.44;5092462;28;20607;-77
2022/04/07 10:01:38;;;;;;;0.20;0.20;;;;;;;11.73;54.63;98379.81;5091829;28;20028;-77
2022/04/07 10:04:06;;;;;;;0.00;0.00;;;;;;;11.57;53.54;98403.81;5089304;28;20086;-77
2022/04/07 10:06:34;;;;;;;0.03;0.03;;;;;;;11.67;54.04;98378.41;5088308;28;20068;-77
2022/04/07 10:09:03;;;;;;;0.10;0.10;;;;;;;11.76;53.79;98388.44;5085132;28;20032;-77
2022/04/07 10:11:32;;;;;;;1.75;1.65;;;;;;;11.72;54.62;98396.69;5087626;28;20033;-77
2022/04/07 10:13:59;;;;;;;0.10;0.10;;;;;;;11.80;54.39;98392.59;5089409;28;20470;-77
2022/04/07 10:16:26;;;;;;;0.75;0.75;;;;;;;11.80;54.03;98395.25;5087943;28;20030;-77
2022/04/07 10:19:10;;;;;;;0.17;0.17;;;;;;;11.77;52.66;98408.69;5088614;28;20024;-77
2022/04/07 10:27:01;;;;;;;0.00;0.00;;;;;;;11.72;53.21;98404.63;5108748;27;20388;-76
2022/04/07 10:29:29;;;;;;;0.10;0.10;;;;;;;11.81;52.63;98398.72;5107749;28;20036;-77
2022/04/07 10:32:18;;;;;;;0.10;0.10;;;;;;;11.79;52.46;98438.63;5105527;28;20122;-77
2022/04/07 10:34:59;;;;;;;0.10;0.10;;;;;;;11.88;52.15;98421.28;5108846;28;20618;-77
2022/04/07 10:37:46;;;;;;;0.10;0.10;;;;;;;11.79;51.48;98421.88;5112793;28;20062;-77
2022/04/07 10:40:35;;;;;;;0.10;0.10;;;;;;;11.81;51.59;98388.13;5109262;28;20039;-76
2022/04/07 10:45:44;;;;;;;0.10;0.10;;;;;;;11.97;51.01;98470.28;5129956;27;20402;-77
2022/04/07 10:48:31;;;;;;;0.00;0.00;;;;;;;12.10;51.24;98435.81;5129641;28;20030;-77
2022/04/07 10:51:00;;;;;;;0.10;0.10;;;;;;;12.11;50.55;98403.03;5124762;27;20027;-77
2022/04/07 10:58:46;;;;;;;0.32;0.32;;;;;;;12.52;51.19;98447.22;5108820;27;20347;-77
2022/04/07 11:01:34;;;;;;;0.10;0.10;;;;;;;12.61;50.29;98414.75;5108990;28;20130;-78
2022/04/07 11:12:43;;;;;;;1.15;0.55;;;;;;;13.14;49.58;98429.78;5069944;28;20398;-77
2022/04/07 11:15:25;;;;;;;0.00;0.00;;;;;;;13.43;49.16;98482.78;5067407;28;20032;-77
2022/04/07 11:17:55;;;;;;;0.10;0.10;;;;;;;13.03;47.66;98450.94;5053151;28;20116;-77
2022/04/07 11:20:24;;;;;;;0.10;0.10;;;;;;;12.83;47.02;98445.19;5069753;28;20098;-76
2022/04/07 11:23:13;;;;;;;0.10;0.10;;;;;;;12.76;47.92;98449.19;5064563;28;20478;-77
2022/04/07 11:25:42;;;;;;;0.10;0.10;;;;;;;12.87;47.76;98446.69;5068056;28;20036;-77
2022/04/07 11:38:42;;;;;;;0.10;0.10;;;;;;;13.31;47.00;98459.66;5070447;27;20399;-77
2022/04/07 11:41:10;;;;;;;0.10;0.10;;;;;;;13.15;45.69;98454.59;5071677;28;20036;-76
2022/04/07 11:43:39;;;;;;;1.65;0.90;;;;;;;13.24;46.61;98460.09;5067043;28;20029;-77
2022/04/07 11:46:06;;;;;;;0.10;0.10;;;;;;;13.16;45.86;98462.44;5069558;28;20036;-77
2022/04/07 11:48:35;;;;;;;0.10;0.10;;;;;;;13.24;46.92;98445.97;5069958;28;20035;-77
2022/04/07 11:51:09;;;;;;;0.10;0.10;;;;;;;13.20;46.52;98463.94;5066237;28;20655;-77
2022/04/07 11:53:40;;;;;;;0.40;0.40;;;;;;;13.52;46.44;98452.88;5082884;22;20049;-74
2022/04/07 11:56:20;;;;;;;0.20;0.20;;;;;;;13.31;46.25;98480.94;5071543;28;20041;-74
2022/04/07 11:58:54;;;;;;;0.10;0.10;;;;;;;13.21;45.84;98481.59;5079731;28;20040;-73
2022/04/07 12:01:21;;;;;;;0.43;0.43;;;;;;;13.31;46.28;98470.31;5085067;28;20025;-74
2022/04/07 12:03:56;;;;;;;0.10;0.10;;;;;;;13.35;46.44;98466.50;5087615;28;20044;-74
2022/04/07 12:06:24;;;;;;;0.15;0.15;;;;;;;13.47;45.06;98472.78;5086926;28;20028;-76
2022/04/07 12:08:52;;;;;;;0.10;0.10;;;;;;;13.25;44.95;98460.97;5087244;28;20025;-75
2022/04/07 12:11:20;;;;;;;0.10;0.10;;;;;;;13.52;45.74;98506.09;5086567;28;20035;-75
2022/04/07 12:13:48;;;;;;;0.13;0.13;;;;;;;13.52;45.20;98462.66;5087118;28;20062;-75
2022/04/07 12:16:15;;;;;;;0.05;0.05;;;;;;;13.85;45.31;98469.22;5088045;28;20106;-75
2022/04/07 12:18:41;;;;;;;0.10;0.10;;;;;;;13.96;45.35;98471.97;5088282;28;20028;-75